Time;durP1;ratioP1;P1;durP2;ratioP2;P2;SDS_P1;SDS_P2;PMS_P1;PMS_P2;Temp;Humidity;BMP_temperature;BMP_pressure;BME280_temperature;BME280_humidity;BME280_pressure;Samples;Min_cycle;Max_cycle;Signal;HPM_P1;HPM_P2
2022/10/29 00:00:51;;;;;;;15.17;9.30;;;;;;;17.50;80.32;100875.31;4991344;28;20519;-80
2022/10/29 00:03:17;;;;;;;15.07;6.60;;;;;;;17.47;80.46;100881.03;5003505;28;20442;-80
2022/10/29 00:05:44;;;;;;;12.23;7.20;;;;;;;17.53;80.09;100883.06;4994851;28;20488;-80
2022/10/29 00:08:11;;;;;;;17.67;8.33;;;;;;;17.43;80.46;100879.69;4983387;28;20480;-80
2022/10/29 00:10:39;;;;;;;22.73;7.73;;;;;;;17.49;80.63;100874.44;4983397;28;20492;-80
2022/10/29 00:13:05;;;;;;;17.53;8.40;;;;;;;17.47;80.94;100870.22;4983253;28;20469;-79
2022/10/29 00:15:32;;;;;;;14.50;7.80;;;;;;;17.48;80.73;100861.97;4978191;28;20548;-80
2022/10/29 00:17:58;;;;;;;13.53;7.83;;;;;;;17.43;80.74;100872.44;4982738;28;20453;-80
2022/10/29 00:20:25;;;;;;;16.83;7.93;;;;;;;17.47;80.94;100872.94;4981877;28;20492;-81
2022/10/29 00:22:54;;;;;;;15.07;7.53;;;;;;;17.44;81.09;100887.63;4979518;28;20505;-80
2022/10/29 00:25:20;;;;;;;21.90;8.50;;;;;;;17.45;81.18;100872.28;4978863;28;20797;-81
2022/10/29 00:27:48;;;;;;;15.00;8.20;;;;;;;17.44;81.21;100887.63;4983071;28;20457;-80
2022/10/29 00:30:16;;;;;;;18.37;8.50;;;;;;;17.38;81.27;100882.06;4982291;28;20464;-81
2022/10/29 00:32:42;;;;;;;20.07;8.63;;;;;;;17.36;81.65;100882.25;4979165;28;20452;-80
2022/10/29 00:35:09;;;;;;;19.87;8.30;;;;;;;17.37;81.54;100878.50;4981873;28;20441;-80
2022/10/29 00:37:36;;;;;;;17.33;7.77;;;;;;;17.35;81.52;100877.84;4981241;28;20516;-81
2022/10/29 00:40:03;;;;;;;17.80;9.17;;;;;;;17.28;81.70;100879.53;4982844;28;20504;-81
2022/10/29 00:42:30;;;;;;;17.10;8.73;;;;;;;17.27;81.82;100873.28;4982145;28;20936;-81
2022/10/29 00:44:58;;;;;;;19.60;10.03;;;;;;;17.22;82.03;100872.97;4982101;28;20484;-81
2022/10/29 00:47:26;;;;;;;13.73;8.30;;;;;;;17.16;82.26;100876.31;4982529;28;20968;-82
2022/10/29 00:49:55;;;;;;;17.70;8.20;;;;;;;17.09;82.73;100868.03;4982509;28;21005;-80
2022/10/29 00:52:24;;;;;;;18.07;8.10;;;;;;;17.13;83.08;100866.72;4981421;28;20488;-81
2022/10/29 00:54:51;;;;;;;22.97;7.90;;;;;;;17.06;82.78;100873.75;4982303;28;20529;-80
2022/10/29 00:57:21;;;;;;;18.57;8.37;;;;;;;17.03;82.99;100868.72;4982508;28;20496;-79
2022/10/29 00:59:49;;;;;;;16.10;8.20;;;;;;;17.09;82.98;100867.19;4983033;28;20573;-80
2022/10/29 01:02:17;;;;;;;22.73;8.43;;;;;;;17.02;83.32;100858.91;4982523;28;20595;-80
2022/10/29 01:04:45;;;;;;;19.47;8.80;;;;;;;16.91;83.84;100864.66;4982396;28;20560;-80
2022/10/29 01:07:12;;;;;;;21.47;8.60;;;;;;;16.92;83.63;100867.16;4981282;28;20499;-80
2022/10/29 01:09:39;;;;;;;16.47;9.10;;;;;;;16.84;83.85;100867.19;4982773;28;20584;-80
2022/10/29 01:12:18;;;;;;;17.13;9.00;;;;;;;16.75;84.92;100874.38;4981431;28;20500;-81
2022/10/29 01:14:51;;;;;;;17.00;8.20;;;;;;;16.83;84.74;100872.72;4982671;28;20533;-80
2022/10/29 01:17:25;;;;;;;25.43;9.70;;;;;;;16.84;84.63;100867.19;4981577;28;21044;-81
2022/10/29 01:20:24;;;;;;;15.07;8.70;;;;;;;16.84;84.45;100867.19;4982233;28;20996;-80
2022/10/29 01:23:03;;;;;;;19.13;9.47;;;;;;;16.81;84.76;100880.13;4976684;28;20540;-80
2022/10/29 01:25:51;;;;;;;13.70;8.43;;;;;;;16.87;84.76;100868.69;4981500;28;20480;-80
2022/10/29 01:28:25;;;;;;;19.90;8.43;;;;;;;16.84;84.57;100875.28;4982674;28;20480;-81
2022/10/29 01:31:01;;;;;;;19.93;9.13;;;;;;;16.75;84.83;100877.09;4981957;28;20762;-81
2022/10/29 01:33:32;;;;;;;19.30;8.30;;;;;;;16.78;85.49;100880.47;4981924;28;20949;-81
2022/10/29 01:36:06;;;;;;;23.57;10.10;;;;;;;17.07;84.32;100869.22;4981678;28;21056;-81
2022/10/29 01:38:36;;;;;;;22.90;9.80;;;;;;;16.98;84.25;100868.38;4984890;28;20491;-80
2022/10/29 01:41:07;;;;;;;26.03;11.20;;;;;;;16.82;84.90;100868.31;4985400;28;20520;-81
2022/10/29 01:43:38;;;;;;;17.63;9.67;;;;;;;16.72;85.48;100871.19;4985481;28;20869;-80
2022/10/29 01:46:09;;;;;;;15.20;8.90;;;;;;;16.70;85.57;100873.19;4984731;28;20500;-80
2022/10/29 01:48:40;;;;;;;20.87;8.40;;;;;;;16.65;85.51;100875.56;4985177;28;20570;-80
2022/10/29 01:51:11;;;;;;;17.87;9.80;;;;;;;16.69;86.06;100863.41;4984307;28;20481;-81
2022/10/29 01:53:38;;;;;;;19.40;8.70;;;;;;;16.85;85.17;100866.16;4982381;28;20476;-81
2022/10/29 01:56:05;;;;;;;20.83;9.67;;;;;;;16.74;85.74;100859.19;4984867;28;20611;-81
2022/10/29 01:58:32;;;;;;;25.43;9.77;;;;;;;16.65;85.59;100862.91;4985454;28;20547;-80
2022/10/29 02:01:03;;;;;;;17.50;9.37;;;;;;;16.54;86.12;100864.06;4984156;28;20511;-80
2022/10/29 02:03:40;;;;;;;17.83;8.97;;;;;;;16.68;86.33;100859.88;4984951;28;20477;-80
2022/10/29 02:06:15;;;;;;;16.07;9.37;;;;;;;16.71;85.56;100853.28;4984499;28;20476;-80
2022/10/29 02:08:49;;;;;;;26.70;9.40;;;;;;;16.47;86.62;100854.91;4984716;28;20460;-81
2022/10/29 02:11:20;;;;;;;20.07;9.37;;;;;;;16.40;86.72;100858.44;4984602;28;20486;-81
2022/10/29 02:13:50;;;;;;;16.30;9.60;;;;;;;16.34;87.54;100843.75;4984834;28;20444;-80
2022/10/29 02:16:17;;;;;;;18.17;9.50;;;;;;;16.37;87.36;100848.81;4984888;28;20548;-81
2022/10/29 02:18:47;;;;;;;20.33;9.70;;;;;;;16.28;87.71;100850.63;4985040;28;20625;-80
2022/10/29 02:21:15;;;;;;;20.30;10.30;;;;;;;16.14;88.19;100841.31;4984621;28;20496;-80
2022/10/29 02:23:42;;;;;;;18.97;9.93;;;;;;;16.19;88.50;100836.25;4985020;28;20457;-80
2022/10/29 02:26:09;;;;;;;18.20;10.47;;;;;;;16.21;88.65;100836.09;4984898;28;20464;-79
2022/10/29 02:28:35;;;;;;;26.73;9.80;;;;;;;16.00;89.71;100842.78;4983806;28;20477;-80
2022/10/29 02:31:02;;;;;;;21.43;11.00;;;;;;;15.92;90.30;100833.78;4984159;28;20508;-80
2022/10/29 02:33:29;;;;;;;22.57;12.00;;;;;;;16.13;89.98;100825.31;4984148;28;20817;-80
2022/10/29 02:35:57;;;;;;;28.03;12.70;;;;;;;16.18;89.15;100829.19;4968201;28;20963;-80
2022/10/29 02:38:24;;;;;;;21.67;11.37;;;;;;;16.29;89.07;100830.75;4983552;28;20470;-80
2022/10/29 02:40:50;;;;;;;19.97;9.97;;;;;;;16.34;88.29;100816.75;4984270;28;20472;-80
2022/10/29 02:43:17;;;;;;;23.37;11.27;;;;;;;16.46;88.25;100815.44;4984060;28;20739;-81
2022/10/29 02:45:43;;;;;;;21.53;11.10;;;;;;;16.61;87.19;100807.53;4983682;28;20595;-81
2022/10/29 02:48:10;;;;;;;21.03;10.57;;;;;;;16.37;87.77;100809.19;4983836;28;20991;-81
2022/10/29 02:50:37;;;;;;;15.83;12.33;;;;;;;16.24;88.46;100800.69;4983483;28;20540;-80
2022/10/29 02:53:05;;;;;;;20.80;10.83;;;;;;;16.09;89.41;100805.03;4983447;28;20982;-81
2022/10/29 02:55:32;;;;;;;23.77;11.40;;;;;;;16.16;89.34;100806.06;4983929;28;20500;-81
2022/10/29 02:57:58;;;;;;;27.97;11.90;;;;;;;16.18;89.12;100812.16;4984729;28;20504;-80
2022/10/29 03:00:25;;;;;;;19.10;11.20;;;;;;;16.11;89.29;100816.50;4983943;28;20527;-81
2022/10/29 03:02:52;;;;;;;19.60;11.67;;;;;;;16.02;89.73;100810.22;4984445;28;20535;-80
2022/10/29 03:05:19;;;;;;;17.97;11.03;;;;;;;15.99;89.68;100811.41;4983597;28;20449;-80
2022/10/29 03:07:45;;;;;;;15.60;11.70;;;;;;;15.94;90.12;100818.31;4984674;28;20805;-81
2022/10/29 03:10:13;;;;;;;23.87;12.80;;;;;;;15.93;90.25;100812.03;4983870;28;20512;-80
2022/10/29 03:12:40;;;;;;;27.07;11.87;;;;;;;15.89;89.83;100805.31;4983708;28;20500;-80
2022/10/29 03:15:08;;;;;;;19.13;12.60;;;;;;;15.79;90.32;100805.41;4983274;28;20855;-79
2022/10/29 03:17:35;;;;;;;16.20;9.60;;;;;;;15.47;90.24;100819.53;4984673;28;20488;-80
2022/10/29 03:20:01;;;;;;;20.63;10.20;;;;;;;15.42;90.37;100819.16;4983926;28;20576;-80
2022/10/29 03:22:28;;;;;;;20.23;9.40;;;;;;;15.25;90.56;100810.94;4983283;28;20568;-80
2022/10/29 03:24:54;;;;;;;18.63;8.73;;;;;;;15.21;90.58;100812.28;4984225;28;20453;-80
2022/10/29 03:27:22;;;;;;;16.03;9.60;;;;;;;15.18;90.94;100812.59;4983638;28;20509;-80
2022/10/29 03:29:49;;;;;;;16.07;10.30;;;;;;;15.20;90.90;100815.97;4981842;28;20488;-80
2022/10/29 03:32:16;;;;;;;20.53;10.90;;;;;;;15.21;91.16;100814.97;4982843;28;20500;-80
2022/10/29 03:34:42;;;;;;;17.13;9.87;;;;;;;15.21;91.71;100814.13;4982018;28;20480;-81
2022/10/29 03:37:09;;;;;;;17.07;9.57;;;;;;;15.16;92.14;100814.59;4982262;28;20512;-80
2022/10/29 03:39:35;;;;;;;17.80;10.77;;;;;;;15.14;92.57;100799.59;4982914;28;20655;-80
2022/10/29 03:42:02;;;;;;;22.67;10.97;;;;;;;15.13;93.54;100798.75;4982868;28;20521;-81
2022/10/29 03:44:30;;;;;;;17.47;10.23;;;;;;;15.05;93.46;100801.38;4982650;28;20449;-80
2022/10/29 03:46:57;;;;;;;22.67;10.67;;;;;;;14.79;93.92;100804.88;4983188;28;20480;-80
2022/10/29 03:49:24;;;;;;;20.30;10.63;;;;;;;14.90;94.37;100809.16;4983401;28;20496;-80
2022/10/29 03:51:50;;;;;;;20.33;9.37;;;;;;;14.85;94.22;100801.56;4982240;28;20495;-81
2022/10/29 03:54:17;;;;;;;19.03;10.30;;;;;;;14.87;93.93;100809.47;4982978;28;20460;-81
2022/10/29 03:56:44;;;;;;;18.40;11.00;;;;;;;14.86;93.62;100805.09;4982182;28;20484;-80
2022/10/29 03:59:10;;;;;;;23.50;12.03;;;;;;;14.83;93.89;100805.41;4982447;28;20477;-80
2022/10/29 04:01:38;;;;;;;25.63;11.60;;;;;;;14.89;94.18;100802.09;4982956;28;20539;-80
2022/10/29 04:04:05;;;;;;;17.00;11.90;;;;;;;14.89;94.03;100807.47;4982513;28;20445;-80
2022/10/29 04:06:32;;;;;;;18.43;12.10;;;;;;;14.88;94.40;100813.88;4980967;28;20684;-80
2022/10/29 04:08:58;;;;;;;21.83;11.23;;;;;;;14.88;94.01;100812.00;4982445;28;20516;-80
2022/10/29 04:11:25;;;;;;;20.37;11.63;;;;;;;14.81;93.55;100819.03;4980892;28;20516;-79
2022/10/29 04:13:52;;;;;;;19.43;10.67;;;;;;;14.81;93.38;100818.19;4973699;28;20580;-79
2022/10/29 04:16:19;;;;;;;20.87;11.07;;;;;;;14.80;93.43;100816.47;4982005;28;20487;-79
2022/10/29 04:18:48;;;;;;;26.70;12.03;;;;;;;14.81;93.82;100818.19;4982785;28;20480;-80
2022/10/29 04:21:14;;;;;;;24.23;13.73;;;;;;;14.87;93.78;100820.25;4981836;28;20520;-81
2022/10/29 04:23:41;;;;;;;16.77;12.40;;;;;;;15.00;94.73;100804.56;4982343;28;20525;-81
2022/10/29 04:26:07;;;;;;;16.57;11.73;;;;;;;14.94;95.51;100794.38;4981563;28;20548;-81
2022/10/29 04:28:34;;;;;;;22.30;12.37;;;;;;;14.90;94.67;100792.19;4982516;28;20457;-79
2022/10/29 04:31:04;;;;;;;24.53;11.60;;;;;;;14.85;94.07;100796.16;4981546;28;20568;-80
2022/10/29 04:33:31;;;;;;;17.73;12.23;;;;;;;14.72;93.97;100789.47;4982861;28;20457;-80
2022/10/29 04:35:59;;;;;;;24.07;12.77;;;;;;;14.75;94.61;100798.09;4981564;28;21064;-85
2022/10/29 04:38:25;;;;;;;23.10;13.63;;;;;;;14.79;94.80;100799.50;4981857;28;20767;-85
2022/10/29 04:40:57;;;;;;;21.20;12.53;;;;;;;14.83;95.08;100791.94;4982285;28;20608;-85
2022/10/29 04:43:23;;;;;;;29.47;14.23;;;;;;;14.78;95.48;100788.88;4982325;28;20977;-84
2022/10/29 04:45:51;;;;;;;25.43;13.90;;;;;;;14.77;95.67;100793.44;4982328;28;20481;-85
2022/10/29 04:48:18;;;;;;;21.53;14.20;;;;;;;14.76;95.82;100798.97;4982203;28;20461;-85
2022/10/29 04:50:45;;;;;;;20.77;11.97;;;;;;;14.81;95.44;100791.25;4980904;28;20779;-84
2022/10/29 04:53:13;;;;;;;26.93;13.57;;;;;;;14.72;95.43;100789.47;4981423;28;20502;-85
2022/10/29 04:55:40;;;;;;;18.37;11.97;;;;;;;14.65;95.22;100797.31;4981186;28;20907;-85
2022/10/29 04:58:08;;;;;;;15.93;10.97;;;;;;;14.57;95.28;100798.06;4981315;28;21365;-83
2022/10/29 05:00:34;;;;;;;20.03;11.10;;;;;;;14.65;95.13;100806.25;4981296;28;20519;-84
2022/10/29 05:03:01;;;;;;;26.07;11.67;;;;;;;14.69;95.29;100806.81;4981962;28;20476;-81
2022/10/29 05:05:28;;;;;;;25.77;12.60;;;;;;;14.75;95.46;100803.47;4980729;28;20477;-81
2022/10/29 05:07:58;;;;;;;19.20;12.60;;;;;;;14.88;95.71;100801.25;4981800;28;20535;-81
2022/10/29 05:10:28;;;;;;;20.43;12.40;;;;;;;14.94;95.60;100799.78;4981587;28;20489;-81
2022/10/29 05:12:58;;;;;;;25.80;14.20;;;;;;;14.99;95.39;100800.16;4984410;28;20469;-81
2022/10/29 05:15:25;;;;;;;28.03;12.93;;;;;;;14.92;95.41;100806.31;4985444;28;20471;-80
2022/10/29 05:17:52;;;;;;;20.27;12.30;;;;;;;14.76;95.32;100797.09;4987144;28;20437;-81
2022/10/29 05:20:19;;;;;;;24.57;12.60;;;;;;;14.70;95.19;100805.78;4986403;28;20512;-80
2022/10/29 05:22:45;;;;;;;20.53;12.93;;;;;;;14.57;94.76;100808.84;4986212;28;20531;-80
2022/10/29 05:25:12;;;;;;;19.30;12.77;;;;;;;14.43;94.78;100799.44;4985802;28;20571;-80
2022/10/29 05:27:40;;;;;;;24.67;13.50;;;;;;;14.41;95.00;100803.28;4985072;28;20480;-82
2022/10/29 05:30:08;;;;;;;28.53;13.50;;;;;;;14.47;95.88;100806.19;4978650;28;20471;-80
2022/10/29 05:32:35;;;;;;;20.00;12.63;;;;;;;14.65;96.19;100802.69;4981410;28;20452;-80
2022/10/29 05:35:01;;;;;;;28.60;15.40;;;;;;;14.60;96.10;100811.25;4982208;28;20935;-82
2022/10/29 05:37:28;;;;;;;21.60;11.30;;;;;;;14.44;95.72;100793.06;4982050;28;20481;-82
2022/10/29 05:39:55;;;;;;;19.07;10.20;;;;;;;14.31;95.16;100788.03;4983498;28;20858;-81
2022/10/29 05:42:21;;;;;;;24.07;11.50;;;;;;;14.42;94.11;100791.53;4982317;28;20552;-81
2022/10/29 05:44:50;;;;;;;29.00;12.50;;;;;;;14.31;95.24;100792.59;4983573;28;20487;-81
2022/10/29 05:47:17;;;;;;;21.37;11.80;;;;;;;14.36;95.96;100786.78;4983254;28;21297;-82
2022/10/29 05:49:44;;;;;;;21.70;12.20;;;;;;;14.48;96.31;100789.06;4995902;28;20483;-81
2022/10/29 05:52:11;;;;;;;15.40;13.10;;;;;;;14.45;96.96;100789.38;4982452;28;20511;-81
2022/10/29 05:54:37;;;;;;;25.97;12.80;;;;;;;14.49;97.07;100782.72;4982871;28;20488;-83
2022/10/29 05:57:04;;;;;;;20.30;14.00;;;;;;;14.43;97.45;100782.47;4983161;28;20805;-82
2022/10/29 05:59:30;;;;;;;20.80;11.23;;;;;;;14.45;96.74;100785.84;4983194;28;20452;-82
2022/10/29 06:01:58;;;;;;;19.03;11.90;;;;;;;14.31;96.75;100788.03;4982775;28;20940;-82
2022/10/29 06:04:25;;;;;;;22.33;12.50;;;;;;;14.28;96.39;100784.81;4985819;28;20607;-82
2022/10/29 06:06:52;;;;;;;15.40;10.60;;;;;;;14.23;96.35;100796.03;4982399;28;20489;-82
2022/10/29 06:09:18;;;;;;;27.67;13.57;;;;;;;14.26;96.65;100787.66;4983566;28;21041;-82
2022/10/29 06:11:45;;;;;;;20.03;13.00;;;;;;;14.24;96.62;100780.75;4983015;28;20554;-82
2022/10/29 06:14:11;;;;;;;31.60;13.57;;;;;;;14.31;96.67;100785.34;4983238;28;20453;-82
2022/10/29 06:16:38;;;;;;;22.97;13.83;;;;;;;14.32;96.66;100781.69;4982252;28;20483;-82
2022/10/29 06:19:06;;;;;;;19.67;13.03;;;;;;;14.32;96.83;100786.19;4983134;28;20452;-81
2022/10/29 06:21:33;;;;;;;22.10;13.10;;;;;;;14.36;97.40;100789.47;4982163;28;20504;-82
2022/10/29 06:24:00;;;;;;;23.53;11.97;;;;;;;14.31;97.09;100784.53;4981691;28;20461;-82
2022/10/29 06:26:27;;;;;;;28.10;14.63;;;;;;;14.34;97.04;100781.53;4982387;28;21010;-81
2022/10/29 06:28:54;;;;;;;21.80;13.73;;;;;;;14.37;97.97;100773.13;4981764;28;20503;-81
2022/10/29 06:31:20;;;;;;;27.60;15.80;;;;;;;14.40;97.99;100775.53;4975352;28;20575;-82
2022/10/29 06:33:47;;;;;;;23.90;14.70;;;;;;;14.53;98.07;100785.06;4978452;28;20505;-80
2022/10/29 06:36:15;;;;;;;23.30;15.43;;;;;;;14.46;97.93;100790.22;4979874;28;20552;-81
2022/10/29 06:38:41;;;;;;;25.67;15.47;;;;;;;14.56;98.78;100785.59;4979100;28;20461;-80
2022/10/29 06:41:08;;;;;;;31.77;16.43;;;;;;;14.64;99.06;100791.09;4976700;28;20538;-80
2022/10/29 06:43:35;;;;;;;23.83;15.37;;;;;;;14.71;99.11;100791.34;4979374;28;20455;-81
2022/10/29 06:46:02;;;;;;;26.90;15.93;;;;;;;14.83;98.54;100791.94;4980212;28;20508;-81
2022/10/29 06:48:30;;;;;;;25.83;15.40;;;;;;;14.36;97.73;100789.47;4974473;28;20460;-83
2022/10/29 06:50:58;;;;;;;24.43;15.00;;;;;;;14.39;97.33;100789.13;4973848;28;20484;-79
2022/10/29 06:53:27;;;;;;;23.03;14.27;;;;;;;14.52;96.06;100795.00;4973348;28;21018;-80
2022/10/29 06:55:54;;;;;;;21.30;15.37;;;;;;;14.72;96.22;100792.16;4975865;28;20509;-80
2022/10/29 06:58:21;;;;;;;31.27;16.23;;;;;;;14.79;96.74;100793.25;4975718;28;20450;-78
2022/10/29 07:00:48;;;;;;;23.80;14.90;;;;;;;14.81;96.20;100797.50;4977327;28;20492;-81
2022/10/29 07:03:16;;;;;;;23.93;14.80;;;;;;;14.86;96.06;100792.50;4973132;28;20438;-80
2022/10/29 07:05:43;;;;;;;21.60;14.57;;;;;;;14.84;95.70;100791.81;4979339;28;20504;-85
2022/10/29 07:08:11;;;;;;;27.70;15.33;;;;;;;14.80;95.81;100789.56;4984232;28;20491;-84
2022/10/29 07:10:39;;;;;;;23.10;13.37;;;;;;;14.91;95.04;100786.63;4978112;28;20539;-85
2022/10/29 07:13:06;;;;;;;28.00;15.10;;;;;;;15.03;94.33;100787.22;4971425;28;20484;-83
2022/10/29 07:15:32;;;;;;;20.10;13.07;;;;;;;14.93;94.33;100790.03;4983572;28;20603;-84
2022/10/29 07:18:00;;;;;;;28.13;15.17;;;;;;;15.11;94.21;100806.13;4984564;28;20461;-84
2022/10/29 07:20:27;;;;;;;25.43;13.40;;;;;;;15.12;94.10;100796.19;4983915;28;20884;-85
2022/10/29 07:22:54;;;;;;;24.63;14.37;;;;;;;15.09;93.43;100801.94;4983951;28;20522;-85
2022/10/29 07:25:20;;;;;;;23.87;14.70;;;;;;;15.12;93.83;100799.75;4982902;28;20492;-85
2022/10/29 07:27:49;;;;;;;24.47;14.87;;;;;;;15.20;93.76;100804.34;4988922;28;20476;-84
2022/10/29 07:30:16;;;;;;;30.27;14.47;;;;;;;15.33;92.82;100807.50;4982243;28;20919;-83
2022/10/29 07:32:42;;;;;;;24.80;14.70;;;;;;;15.32;92.33;100799.56;4983749;28;20922;-84
2022/10/29 07:35:09;;;;;;;21.03;13.83;;;;;;;15.49;92.06;100798.66;4981320;28;20922;-84
2022/10/29 07:37:36;;;;;;;26.10;14.70;;;;;;;15.59;91.14;100807.47;4976174;28;20465;-82
2022/10/29 07:40:02;;;;;;;22.80;14.90;;;;;;;15.71;90.34;100802.66;4974695;28;20481;-82
2022/10/29 07:42:29;;;;;;;21.63;13.43;;;;;;;15.83;90.00;100803.22;4971172;28;20477;-82
2022/10/29 07:44:57;;;;;;;31.47;13.90;;;;;;;15.95;89.64;100801.09;4989734;28;20610;-82
2022/10/29 07:47:24;;;;;;;21.93;14.47;;;;;;;15.99;89.14;100795.22;4982933;28;21021;-82
2022/10/29 07:49:51;;;;;;;23.80;13.40;;;;;;;16.02;89.10;100798.59;4982591;28;20445;-83
2022/10/29 07:52:17;;;;;;;22.83;13.40;;;;;;;16.33;87.57;100804.28;4981057;28;20543;-82
2022/10/29 07:54:44;;;;;;;18.77;13.03;;;;;;;16.57;86.75;100807.00;4982362;28;20525;-81
2022/10/29 07:57:11;;;;;;;21.00;12.83;;;;;;;16.79;86.16;100806.53;4983081;28;20493;-83
2022/10/29 07:59:37;;;;;;;23.90;12.40;;;;;;;16.59;85.86;100801.44;4982919;28;20481;-83
2022/10/29 08:02:07;;;;;;;23.93;13.13;;;;;;;16.84;85.00;100794.25;4982206;28;20564;-82
2022/10/29 08:04:33;;;;;;;19.23;12.03;;;;;;;16.85;83.91;100795.09;4983786;28;20437;-84
2022/10/29 08:07:00;;;;;;;24.67;12.07;;;;;;;16.99;83.45;100801.69;4980511;28;20496;-82
2022/10/29 08:09:27;;;;;;;17.47;11.90;;;;;;;17.23;83.00;100800.84;4982650;28;20507;-81
2022/10/29 08:11:55;;;;;;;28.60;14.57;;;;;;;17.06;82.96;100800.81;4982020;28;20858;-80
2022/10/29 08:14:22;;;;;;;21.97;12.60;;;;;;;17.35;82.54;100799.47;4982315;28;20524;-80
2022/10/29 08:16:48;;;;;;;20.87;12.20;;;;;;;17.95;80.12;100784.63;4981385;28;20590;-81
2022/10/29 08:19:16;;;;;;;20.80;13.00;;;;;;;18.11;78.19;100785.56;4982755;28;20446;-82
2022/10/29 08:21:43;;;;;;;15.20;11.77;;;;;;;17.83;78.33;100776.00;4981027;28;20507;-86
2022/10/29 08:24:10;;;;;;;17.03;11.03;;;;;;;17.87;77.99;100757.59;4974035;28;20455;-79
2022/10/29 08:26:36;;;;;;;18.03;10.80;;;;;;;17.79;79.45;100782.75;4983027;28;20495;-80
2022/10/29 08:29:03;;;;;;;18.40;11.80;;;;;;;17.49;80.64;100789.81;4983067;28;20469;-81
2022/10/29 08:31:30;;;;;;;23.47;13.13;;;;;;;17.72;80.40;100780.94;4982355;28;20504;-80
2022/10/29 08:33:57;;;;;;;19.90;11.43;;;;;;;17.82;80.35;100787.00;4982028;28;20730;-81
2022/10/29 08:36:25;;;;;;;21.80;13.00;;;;;;;18.01;79.82;100778.47;4981222;28;20712;-81
2022/10/29 08:38:51;;;;;;;22.80;11.53;;;;;;;17.78;80.30;100780.25;4981909;28;20522;-80
2022/10/29 08:41:33;;;;;;;23.13;12.73;;;;;;;17.47;82.02;100781.03;4986962;28;20507;-81
2022/10/29 08:44:15;;;;;;;18.47;13.00;;;;;;;17.69;81.81;100790.28;4964241;28;20541;-81
2022/10/29 08:46:45;;;;;;;22.87;13.57;;;;;;;17.25;83.02;100791.53;4981821;28;21032;-81
2022/10/29 08:49:14;;;;;;;21.53;12.63;;;;;;;17.26;83.02;100792.38;4983171;28;20444;-81
2022/10/29 08:51:44;;;;;;;17.90;12.70;;;;;;;17.12;84.29;100793.91;4980217;28;20555;-81
2022/10/29 08:54:12;;;;;;;21.80;12.77;;;;;;;17.09;84.53;100797.78;4982639;28;20452;-81
2022/10/29 08:56:44;;;;;;;18.27;12.60;;;;;;;16.91;84.94;100797.97;4982351;28;20483;-80
2022/10/29 08:59:14;;;;;;;22.50;13.53;;;;;;;17.13;84.41;100791.06;4982374;28;20509;-80
2022/10/29 09:01:40;;;;;;;20.77;12.20;;;;;;;17.12;84.89;100786.66;4981888;28;20903;-81
2022/10/29 09:04:21;;;;;;;23.23;13.43;;;;;;;17.18;85.34;100790.53;4983438;28;20440;-81
2022/10/29 09:07:01;;;;;;;25.60;13.83;;;;;;;17.28;84.84;100795.75;4980759;28;20508;-81
2022/10/29 09:09:31;;;;;;;22.27;13.67;;;;;;;17.38;84.12;100796.41;4982218;28;20559;-80
2022/10/29 09:12:07;;;;;;;25.23;13.37;;;;;;;17.53;83.76;100804.66;4976190;28;20511;-80
2022/10/29 09:14:46;;;;;;;20.73;13.77;;;;;;;17.65;82.90;100797.88;4974072;28;20456;-81
2022/10/29 09:17:23;;;;;;;22.63;14.97;;;;;;;17.85;81.71;100795.59;4962843;28;20501;-81
2022/10/29 09:20:03;;;;;;;24.43;12.63;;;;;;;18.53;79.64;100793.25;4962720;29;21010;-81
2022/10/29 09:22:36;;;;;;;21.93;13.53;;;;;;;20.64;70.74;100791.34;4961643;28;20504;-81
2022/10/29 09:25:09;;;;;;;19.70;11.10;;;;;;;22.42;63.78;100778.31;4982206;28;20542;-80
2022/10/29 09:27:43;;;;;;;14.33;8.70;;;;;;;22.62;60.88;100772.91;4982710;28;20498;-81
2022/10/29 09:30:13;;;;;;;18.77;10.20;;;;;;;23.59;57.01;100780.66;4982026;28;20497;-80
2022/10/29 09:32:43;;;;;;;15.77;9.43;;;;;;;24.07;53.82;100780.31;4982959;28;20542;-81
2022/10/29 09:35:14;;;;;;;14.30;9.30;;;;;;;23.20;57.93;100780.50;4981248;28;20452;-80
2022/10/29 09:37:47;;;;;;;20.73;11.63;;;;;;;23.75;57.23;100785.66;4981256;28;20539;-81
2022/10/29 09:40:18;;;;;;;27.03;9.87;;;;;;;25.52;51.59;100784.16;4982119;28;20427;-81
2022/10/29 09:42:47;;;;;;;13.90;9.77;;;;;;;23.90;54.54;100774.50;4982227;28;20473;-79
2022/10/29 09:45:16;;;;;;;16.00;11.40;;;;;;;23.26;57.30;100774.22;4981447;28;20478;-79
2022/10/29 09:47:50;;;;;;;22.77;9.67;;;;;;;22.43;59.96;100779.13;4982427;28;20457;-79
2022/10/29 09:50:21;;;;;;;15.90;10.70;;;;;;;21.86;63.27;100783.97;4981041;28;20486;-79
2022/10/29 09:52:49;;;;;;;17.90;10.50;;;;;;;22.01;62.63;100765.56;4982111;28;20479;-79
2022/10/29 09:55:20;;;;;;;23.50;10.30;;;;;;;21.96;63.71;100760.75;4981520;28;20450;-79
2022/10/29 09:57:48;;;;;;;24.37;11.20;;;;;;;22.47;62.37;100756.72;4983002;28;20492;-79
2022/10/29 10:00:19;;;;;;;21.77;8.90;;;;;;;22.03;62.38;100749.91;4985142;28;20514;-79
2022/10/29 10:02:53;;;;;;;17.13;10.10;;;;;;;21.60;65.02;100756.38;4986359;28;20513;-80
2022/10/29 10:05:24;;;;;;;12.47;9.47;;;;;;;22.12;63.16;100739.66;4984358;28;20461;-80
2022/10/29 10:08:06;;;;;;;14.23;9.47;;;;;;;21.96;64.00;100738.97;4985352;28;20471;-80
2022/10/29 10:10:34;;;;;;;17.60;10.37;;;;;;;22.26;62.98;100737.81;4988882;28;21085;-80
2022/10/29 10:13:02;;;;;;;15.17;9.63;;;;;;;22.84;60.41;100740.81;5005005;28;20431;-80
2022/10/29 10:15:32;;;;;;;26.53;10.83;;;;;;;22.74;61.15;100727.63;4992615;28;20517;-80
2022/10/29 10:18:01;;;;;;;15.07;9.83;;;;;;;22.75;61.14;100720.28;4985481;28;20862;-80
2022/10/29 10:20:34;;;;;;;15.60;9.80;;;;;;;22.69;60.72;100723.84;4983907;28;20475;-80
2022/10/29 10:23:14;;;;;;;16.00;10.10;;;;;;;22.23;62.42;100705.53;4985218;28;20496;-80
2022/10/29 10:25:41;;;;;;;19.70;9.10;;;;;;;22.21;63.99;100708.47;4985382;28;20486;-80
2022/10/29 10:28:18;;;;;;;15.57;9.70;;;;;;;23.29;60.57;100719.22;4984918;28;20475;-80
2022/10/29 10:30:45;;;;;;;18.50;8.80;;;;;;;24.13;57.34;100723.97;4983764;28;20497;-81
2022/10/29 10:33:23;;;;;;;24.63;8.73;;;;;;;24.69;53.47;100727.84;4985571;28;20945;-80
2022/10/29 10:35:49;;;;;;;16.70;7.73;;;;;;;23.29;57.91;100719.22;4984148;28;20485;-81
2022/10/29 10:38:17;;;;;;;18.23;8.33;;;;;;;23.16;58.88;100711.06;4984506;28;20900;-81
2022/10/29 10:40:44;;;;;;;21.33;8.03;;;;;;;22.97;59.54;100711.88;4984973;28;20480;-80
2022/10/29 10:43:18;;;;;;;13.60;8.23;;;;;;;23.06;58.91;100714.22;4984390;28;20529;-80
2022/10/29 10:45:52;;;;;;;15.93;8.00;;;;;;;23.28;59.36;100711.25;4984016;28;20502;-80
2022/10/29 10:48:19;;;;;;;14.43;7.73;;;;;;;23.54;57.85;100691.25;4985469;28;20459;-80
2022/10/29 10:50:45;;;;;;;18.00;8.07;;;;;;;23.77;57.29;100692.63;4983496;28;20506;-80
2022/10/29 10:53:19;;;;;;;11.30;7.70;;;;;;;24.35;55.93;100697.97;4984656;28;20470;-81
2022/10/29 10:55:51;;;;;;;13.97;8.30;;;;;;;23.95;56.59;100691.94;4984323;28;20642;-80
2022/10/29 10:58:23;;;;;;;16.27;7.77;;;;;;;24.55;56.07;100703.34;4984053;28;21070;-80
2022/10/29 11:00:54;;;;;;;22.90;8.37;;;;;;;24.99;54.31;100689.69;4983904;28;20475;-80
2022/10/29 11:03:27;;;;;;;11.83;7.70;;;;;;;24.98;53.93;100693.50;4985139;28;20811;-80
2022/10/29 11:05:59;;;;;;;13.50;7.90;;;;;;;24.65;54.37;100691.91;4983287;28;20542;-80
2022/10/29 11:08:30;;;;;;;12.30;7.80;;;;;;;24.62;55.57;100678.69;4984038;28;20470;-80
2022/10/29 11:11:00;;;;;;;16.73;8.07;;;;;;;24.73;55.07;100675.22;4983779;28;20507;-80
2022/10/29 11:13:29;;;;;;;14.23;8.30;;;;;;;25.87;51.17;100663.03;4984335;28;20439;-80
2022/10/29 11:15:58;;;;;;;17.30;7.70;;;;;;;27.08;49.38;100672.94;4983474;28;20548;-80
2022/10/29 11:18:30;;;;;;;11.40;7.07;;;;;;;27.76;46.64;100683.22;4983949;28;20512;-80